Time;durP1;ratioP1;P1;durP2;ratioP2;P2;SDS_P1;SDS_P2;PMS_P1;PMS_P2;Temp;Humidity;BMP_temperature;BMP_pressure;BME280_temperature;BME280_humidity;BME280_pressure;Samples;Min_cycle;Max_cycle;Signal;HPM_P1;HPM_P2
2023/10/07 00:01:01;;;;;;;6.37;3.97;;;;;;;;;;5077964;27;88971;-58
2023/10/07 00:03:30;;;;;;;5.60;3.57;;;;;;;;;;5078160;27;88416;-58
2023/10/07 00:06:01;;;;;;;6.70;3.23;;;;;;;;;;5077364;27;89717;-58
2023/10/07 00:08:34;;;;;;;6.97;3.50;;;;;;;;;;5076588;27;90274;-59
2023/10/07 00:11:11;;;;;;;5.80;2.97;;;;;;;;;;5077395;27;90013;-59
2023/10/07 00:13:41;;;;;;;5.30;3.30;;;;;;;;;;5078312;27;87324;-60
2023/10/07 00:16:11;;;;;;;4.80;2.90;;;;;;;;;;5078069;27;89612;-59
2023/10/07 00:18:40;;;;;;;3.67;2.60;;;;;;;;;;5077714;27;89004;-58
2023/10/07 00:21:15;;;;;;;4.00;3.10;;;;;;;;;;5077031;27;88755;-58
2023/10/07 00:23:45;;;;;;;4.90;3.10;;;;;;;;;;5077961;27;87575;-58
2023/10/07 00:26:13;;;;;;;7.43;3.07;;;;;;;;;;5074922;27;88353;-59
2023/10/07 00:28:54;;;;;;;3.53;2.17;;;;;;;;;;5062199;27;88221;-59
2023/10/07 00:31:27;;;;;;;7.53;3.40;;;;;;;;;;5060948;27;88736;-60
2023/10/07 00:34:05;;;;;;;8.97;3.50;;;;;;;;;;5056343;27;88271;-59
2023/10/07 00:36:44;;;;;;;6.83;3.00;;;;;;;;;;5069509;27;89673;-59
2023/10/07 00:39:20;;;;;;;7.40;3.40;;;;;;;;;;5062118;27;87861;-58
2023/10/07 00:41:51;;;;;;;6.97;4.20;;;;;;;;;;5078302;27;87789;-59
2023/10/07 00:44:22;;;;;;;7.97;3.50;;;;;;;;;;5081294;27;87446;-58
2023/10/07 00:47:08;;;;;;;8.27;4.33;;;;;;;;;;5080527;27;89637;-59
2023/10/07 00:49:41;;;;;;;5.53;3.37;;;;;;;;;;5080250;27;88078;-59
2023/10/07 00:52:13;;;;;;;5.90;4.30;;;;;;;;;;5080799;27;87789;-59
2023/10/07 00:54:57;;;;;;;7.10;3.70;;;;;;;;;;5073066;27;88888;-59
2023/10/07 00:57:37;;;;;;;6.23;3.80;;;;;;;;;;5078700;27;88590;-59
2023/10/07 01:00:30;;;;;;;8.57;3.90;;;;;;;;;;5080058;27;90435;-59
2023/10/07 01:03:12;;;;;;;8.47;4.13;;;;;;;;;;5067530;27;89883;-59
2023/10/07 01:05:53;;;;;;;8.03;4.00;;;;;;;;;;5080656;27;87542;-59
2023/10/07 01:08:26;;;;;;;11.97;4.37;;;;;;;;;;5068750;27;88702;-59
2023/10/07 01:11:07;;;;;;;10.13;4.30;;;;;;;;;;5069770;27;88096;-59
2023/10/07 01:13:36;;;;;;;8.47;4.50;;;;;;;;;;5070904;27;88531;-59
2023/10/07 01:16:07;;;;;;;8.23;4.00;;;;;;;;;;5071185;27;87750;-58
2023/10/07 01:18:38;;;;;;;7.70;3.77;;;;;;;;;;5070565;27;88731;-58
2023/10/07 01:21:11;;;;;;;8.20;4.40;;;;;;;;;;5070551;27;89130;-58
2023/10/07 01:23:44;;;;;;;8.00;4.00;;;;;;;;;;5068137;27;87882;-59
2023/10/07 01:26:21;;;;;;;6.37;4.07;;;;;;;;;;5070368;27;88024;-59
2023/10/07 01:28:56;;;;;;;8.07;4.53;;;;;;;;;;5070498;27;89775;-58
2023/10/07 01:31:29;;;;;;;7.07;3.93;;;;;;;;;;5069828;27;88264;-58
2023/10/07 01:34:01;;;;;;;5.77;4.10;;;;;;;;;;5069746;27;87715;-59
2023/10/07 01:36:30;;;;;;;5.37;3.60;;;;;;;;;;5071323;27;87643;-59
2023/10/07 01:39:01;;;;;;;6.17;3.97;;;;;;;;;;5071182;27;89648;-58
2023/10/07 01:41:31;;;;;;;9.27;4.20;;;;;;;;;;5073915;27;89184;-59
2023/10/07 01:44:00;;;;;;;8.00;4.43;;;;;;;;;;5070930;27;88175;-58
2023/10/07 01:46:30;;;;;;;9.03;4.50;;;;;;;;;;5070118;27;89392;-58
2023/10/07 01:49:01;;;;;;;6.37;4.47;;;;;;;;;;5065377;27;89842;-58
2023/10/07 01:51:30;;;;;;;9.13;4.90;;;;;;;;;;5069725;27;88012;-59
2023/10/07 01:54:03;;;;;;;8.10;4.80;;;;;;;;;;5079885;27;89463;-59
2023/10/07 01:56:32;;;;;;;8.13;4.93;;;;;;;;;;5079623;27;88839;-59
2023/10/07 01:59:17;;;;;;;5.30;4.07;;;;;;;;;;5080126;27;88164;-58
2023/10/07 02:01:58;;;;;;;13.00;5.13;;;;;;;;;;5064448;27;88093;-58
2023/10/07 02:04:27;;;;;;;9.40;4.70;;;;;;;;;;5060160;27;87896;-58
2023/10/07 02:06:57;;;;;;;8.90;4.83;;;;;;;;;;5078848;27;87693;-59
2023/10/07 02:09:27;;;;;;;7.87;4.20;;;;;;;;;;5078952;27;89624;-58
2023/10/07 02:11:56;;;;;;;8.87;4.33;;;;;;;;;;5079579;27;87780;-58
2023/10/07 02:14:27;;;;;;;10.77;5.40;;;;;;;;;;5079413;27;88760;-58
2023/10/07 02:16:57;;;;;;;9.93;5.33;;;;;;;;;;5079164;27;88452;-58
2023/10/07 02:19:29;;;;;;;10.63;6.20;;;;;;;;;;5079482;27;89869;-58
2023/10/07 02:21:59;;;;;;;9.97;5.70;;;;;;;;;;5078705;27;88023;-58
2023/10/07 02:24:30;;;;;;;9.10;5.07;;;;;;;;;;5079520;27;89011;-58
2023/10/07 02:27:04;;;;;;;14.70;6.33;;;;;;;;;;5079363;27;87636;-58
2023/10/07 02:29:32;;;;;;;11.07;5.87;;;;;;;;;;5079173;27;87917;-59
2023/10/07 02:32:12;;;;;;;15.10;6.47;;;;;;;;;;5079423;27;89093;-59
2023/10/07 02:34:51;;;;;;;11.23;5.87;;;;;;;;;;5079105;27;88909;-59
2023/10/07 02:37:21;;;;;;;9.53;5.77;;;;;;;;;;5079647;27;87545;-59
2023/10/07 02:39:56;;;;;;;9.53;5.80;;;;;;;;;;5078788;27;88614;-59
2023/10/07 02:42:28;;;;;;;12.23;6.20;;;;;;;;;;5078654;27;88780;-59
2023/10/07 02:45:11;;;;;;;10.07;6.50;;;;;;;;;;5078287;27;87585;-59
2023/10/07 02:47:42;;;;;;;9.77;5.97;;;;;;;;;;5075856;27;87587;-59
2023/10/07 02:50:10;;;;;;;12.63;7.17;;;;;;;;;;5070142;27;89830;-59
2023/10/07 02:52:40;;;;;;;16.50;7.53;;;;;;;;;;5078966;27;87520;-59
2023/10/07 02:55:28;;;;;;;15.67;7.57;;;;;;;;;;5078557;27;87779;-58
2023/10/07 02:57:56;;;;;;;10.83;7.30;;;;;;;;;;5078323;27;88132;-58
2023/10/07 03:00:35;;;;;;;10.97;7.80;;;;;;;;;;5079112;27;89631;-58
2023/10/07 03:03:31;;;;;;;12.67;7.37;;;;;;;;;;5079148;27;88054;-59
2023/10/07 03:06:00;;;;;;;12.70;7.10;;;;;;;;;;5077852;27;88971;-58
2023/10/07 03:08:50;;;;;;;13.27;8.73;;;;;;;;;;5077940;27;88029;-59
2023/10/07 03:11:23;;;;;;;14.83;7.73;;;;;;;;;;5058499;27;89805;-59
2023/10/07 03:13:57;;;;;;;12.73;8.47;;;;;;;;;;5078276;27;89161;-58
2023/10/07 03:16:29;;;;;;;13.93;8.57;;;;;;;;;;5078535;27;88861;-59
2023/10/07 03:19:06;;;;;;;14.80;8.60;;;;;;;;;;5078353;27;87594;-59
2023/10/07 03:24:41;;;;;;;14.47;8.23;;;;;;;;;;5056705;27;89331;-58
2023/10/07 03:27:22;;;;;;;14.70;8.33;;;;;;;;;;5078834;27;87375;-58
2023/10/07 03:30:07;;;;;;;12.43;7.43;;;;;;;;;;5060516;27;87552;-59
2023/10/07 03:32:54;;;;;;;12.97;8.10;;;;;;;;;;5077372;27;88816;-58
2023/10/07 03:35:35;;;;;;;14.00;6.97;;;;;;;;;;5057327;27;89317;-58
2023/10/07 03:38:08;;;;;;;11.10;6.40;;;;;;;;;;5060704;27;89906;-58
2023/10/07 03:40:38;;;;;;;10.47;6.67;;;;;;;;;;5078823;27;87560;-59
2023/10/07 03:43:09;;;;;;;10.07;6.83;;;;;;;;;;5077366;27;89668;-58
2023/10/07 03:45:40;;;;;;;9.40;6.70;;;;;;;;;;5078043;27;88153;-59
2023/10/07 03:48:23;;;;;;;10.63;7.27;;;;;;;;;;5073652;27;87677;-59
2023/10/07 03:50:59;;;;;;;9.73;5.97;;;;;;;;;;5078149;27;87291;-59
2023/10/07 03:53:31;;;;;;;11.30;5.90;;;;;;;;;;5076839;27;88722;-59
2023/10/07 03:56:06;;;;;;;7.90;5.50;;;;;;;;;;5077840;27;88027;-59
2023/10/07 03:58:37;;;;;;;14.33;6.80;;;;;;;;;;5077491;27;87934;-58
2023/10/07 04:01:11;;;;;;;11.00;5.60;;;;;;;;;;5069360;27;88423;-59
2023/10/07 04:03:46;;;;;;;16.23;5.60;;;;;;;;;;5077544;27;88597;-59
2023/10/07 04:06:16;;;;;;;12.30;7.03;;;;;;;;;;5077378;27;88834;-59
2023/10/07 04:08:45;;;;;;;13.67;5.80;;;;;;;;;;5077502;27;87698;-59
2023/10/07 04:11:16;;;;;;;10.20;6.20;;;;;;;;;;5077766;27;87721;-59
2023/10/07 04:13:53;;;;;;;9.23;4.97;;;;;;;;;;5077727;27;88514;-59
2023/10/07 04:16:24;;;;;;;9.20;5.73;;;;;;;;;;5077329;27;87956;-58
2023/10/07 04:18:53;;;;;;;8.80;5.73;;;;;;;;;;5081762;27;87800;-59
2023/10/07 04:21:21;;;;;;;7.67;4.90;;;;;;;;;;5081909;27;87628;-59
2023/10/07 04:23:51;;;;;;;8.93;6.27;;;;;;;;;;5081046;27;89872;-59
2023/10/07 04:26:20;;;;;;;9.97;5.57;;;;;;;;;;5080556;27;90028;-59
2023/10/07 04:28:53;;;;;;;12.80;6.40;;;;;;;;;;5081153;27;88893;-58
2023/10/07 04:31:29;;;;;;;8.47;5.33;;;;;;;;;;5082087;27;87619;-58
2023/10/07 04:34:02;;;;;;;10.23;5.93;;;;;;;;;;5080863;27;89533;-59
2023/10/07 04:36:33;;;;;;;12.50;6.37;;;;;;;;;;5070248;27;89061;-58
2023/10/07 04:39:17;;;;;;;11.70;6.57;;;;;;;;;;5075517;27;89348;-59
2023/10/07 04:41:56;;;;;;;14.70;7.17;;;;;;;;;;5084777;27;87557;-58
2023/10/07 04:45:17;;;;;;;10.97;6.17;;;;;;;;;;5074978;27;88523;-58
2023/10/07 04:47:35;;;;;;;9.57;5.90;;;;;;;;;;5071541;27;88088;-59
2023/10/07 04:50:07;;;;;;;13.17;6.73;;;;;;;;;;5083456;27;87821;-59
2023/10/07 04:52:40;;;;;;;11.80;6.77;;;;;;;;;;5083761;27;87769;-59
2023/10/07 04:55:13;;;;;;;21.67;7.70;;;;;;;;;;5083320;27;89729;-58
2023/10/07 04:57:44;;;;;;;14.87;6.77;;;;;;;;;;5083539;27;87857;-58
2023/10/07 05:00:27;;;;;;;15.23;7.37;;;;;;;;;;5083334;27;88902;-58
2023/10/07 05:02:57;;;;;;;11.93;8.07;;;;;;;;;;5080854;27;87344;-58
2023/10/07 05:05:29;;;;;;;13.23;8.07;;;;;;;;;;5064773;27;89500;-59
2023/10/07 05:07:58;;;;;;;13.90;6.90;;;;;;;;;;5083532;27;89160;-59
2023/10/07 05:10:29;;;;;;;15.33;8.00;;;;;;;;;;5083479;27;88655;-58
2023/10/07 05:13:01;;;;;;;11.20;6.20;;;;;;;;;;5083507;27;87628;-58
2023/10/07 05:15:31;;;;;;;10.03;6.20;;;;;;;;;;5083917;27;89731;-58
2023/10/07 05:18:01;;;;;;;12.33;7.37;;;;;;;;;;5082431;27;90208;-59
2023/10/07 05:20:32;;;;;;;8.13;5.63;;;;;;;;;;5083350;27;88691;-59
2023/10/07 05:23:04;;;;;;;10.27;5.87;;;;;;;;;;5083442;27;87972;-58
2023/10/07 05:25:35;;;;;;;13.70;6.33;;;;;;;;;;5083199;27;89736;-58
2023/10/07 05:28:10;;;;;;;13.10;6.50;;;;;;;;;;5081661;27;87729;-58
2023/10/07 05:30:43;;;;;;;11.53;6.30;;;;;;;;;;5082767;27;88958;-60
2023/10/07 05:33:11;;;;;;;9.10;6.10;;;;;;;;;;5082838;27;87608;-58
2023/10/07 05:35:40;;;;;;;9.77;5.47;;;;;;;;;;5082360;27;89711;-59
2023/10/07 05:38:09;;;;;;;11.13;6.53;;;;;;;;;;5076342;27;87988;-58
2023/10/07 05:40:39;;;;;;;13.17;6.13;;;;;;;;;;5082555;27;88945;-58
2023/10/07 05:43:08;;;;;;;13.47;5.77;;;;;;;;;;5079346;27;88114;-58
2023/10/07 05:45:37;;;;;;;10.97;5.47;;;;;;;;;;5082012;27;88397;-58
2023/10/07 05:48:07;;;;;;;9.03;5.13;;;;;;;;;;5081220;27;89370;-58
2023/10/07 05:50:35;;;;;;;10.50;5.63;;;;;;;;;;5082064;27;90054;-58
2023/10/07 05:53:04;;;;;;;9.97;5.77;;;;;;;;;;5081145;27;88777;-57
2023/10/07 05:55:34;;;;;;;9.10;4.97;;;;;;;;;;5082374;27;88550;-58
2023/10/07 05:58:02;;;;;;;10.87;5.63;;;;;;;;;;5081867;27;87422;-59
2023/10/07 06:00:32;;;;;;;8.33;5.20;;;;;;;;;;5082054;27;87777;-58
2023/10/07 06:03:02;;;;;;;8.23;5.00;;;;;;;;;;5082898;27;87775;-59
2023/10/07 06:05:33;;;;;;;11.37;4.83;;;;;;;;;;5082817;27;89600;-58
2023/10/07 06:08:04;;;;;;;7.10;4.17;;;;;;;;;;5081852;27;88894;-58
2023/10/07 06:10:33;;;;;;;9.30;5.20;;;;;;;;;;5082802;27;88747;-59
2023/10/07 06:13:08;;;;;;;6.10;4.37;;;;;;;;;;5082781;27;87624;-59
2023/10/07 06:15:37;;;;;;;10.70;5.53;;;;;;;;;;5082555;27;89623;-58
2023/10/07 06:18:06;;;;;;;7.20;5.53;;;;;;;;;;5082381;27;89100;-58
2023/10/07 06:20:38;;;;;;;7.17;4.13;;;;;;;;;;5082469;27;87460;-59
2023/10/07 06:23:13;;;;;;;6.03;3.73;;;;;;;;;;5082635;27;87227;-58
2023/10/07 06:25:48;;;;;;;7.37;3.77;;;;;;;;;;5082164;27;87557;-58
2023/10/07 06:28:29;;;;;;;6.20;3.57;;;;;;;;;;5082099;27;89076;-58
2023/10/07 06:31:01;;;;;;;6.57;3.47;;;;;;;;;;5081743;27;87782;-58
2023/10/07 06:33:31;;;;;;;3.53;2.57;;;;;;;;;;5081614;27;87913;-59
2023/10/07 06:36:02;;;;;;;5.40;2.90;;;;;;;;;;5079086;27;88513;-58
2023/10/07 06:38:33;;;;;;;5.27;2.53;;;;;;;;;;5080932;27;88972;-58
2023/10/07 06:41:01;;;;;;;4.60;2.57;;;;;;;;;;5081190;27;87948;-58
2023/10/07 06:43:34;;;;;;;2.13;1.73;;;;;;;;;;5082687;27;87502;-58
2023/10/07 06:46:02;;;;;;;5.53;2.03;;;;;;;;;;5081154;27;88340;-58
2023/10/07 06:48:31;;;;;;;4.03;2.27;;;;;;;;;;5081300;27;88108;-58
2023/10/07 06:51:01;;;;;;;3.83;2.07;;;;;;;;;;5081462;27;88740;-58
2023/10/07 06:53:30;;;;;;;6.63;2.33;;;;;;;;;;5082291;27;87709;-58
2023/10/07 06:56:01;;;;;;;3.97;2.37;;;;;;;;;;5081794;27;89616;-58
2023/10/07 06:58:30;;;;;;;2.07;1.67;;;;;;;;;;5070574;27;88982;-59
2023/10/07 07:01:09;;;;;;;2.97;1.97;;;;;;;;;;5077079;27;89293;-58
2023/10/07 07:03:38;;;;;;;2.87;1.23;;;;;;;;;;5078471;27;87422;-58
2023/10/07 07:06:16;;;;;;;4.87;1.87;;;;;;;;;;5068605;27;90017;-58
2023/10/07 07:08:45;;;;;;;1.70;1.30;;;;;;;;;;5075863;27;89200;-58
2023/10/07 07:11:16;;;;;;;3.23;1.23;;;;;;;;;;5077858;27;88114;-58
2023/10/07 07:13:45;;;;;;;1.80;1.23;;;;;;;;;;5073600;27;88299;-58
2023/10/07 07:16:14;;;;;;;2.67;1.60;;;;;;;;;;5077496;27;88749;-58
2023/10/07 07:18:44;;;;;;;8.43;2.13;;;;;;;;;;5069973;27;89055;-58
2023/10/07 07:21:26;;;;;;;2.70;1.37;;;;;;;;;;5067604;27;88353;-58
2023/10/07 07:23:53;;;;;;;2.53;1.40;;;;;;;;;;5068680;27;88127;-58
2023/10/07 07:26:22;;;;;;;3.30;2.07;;;;;;;;;;5071981;27;91077;-58
2023/10/07 07:28:55;;;;;;;2.27;1.37;;;;;;;;;;5069664;27;89707;-58
2023/10/07 07:31:26;;;;;;;4.00;1.10;;;;;;;;;;5069809;27;88026;-61
2023/10/07 07:34:06;;;;;;;2.10;1.27;;;;;;;;;;5067678;27;87758;-55
2023/10/07 07:36:39;;;;;;;3.30;1.53;;;;;;;;;;5067081;27;89332;-57
2023/10/07 07:39:09;;;;;;;5.20;3.17;;;;;;;;;;5077828;27;87714;-56
2023/10/07 07:41:55;;;;;;;12.63;8.80;;;;;;;;;;5077520;27;87872;-56
2023/10/07 07:44:33;;;;;;;7.33;5.33;;;;;;;;;;5078496;27;87581;-58
2023/10/07 07:47:02;;;;;;;17.83;10.13;;;;;;;;;;5077585;27;89333;-56
2023/10/07 07:49:33;;;;;;;24.50;15.73;;;;;;;;;;5059702;27;89011;-60
2023/10/07 07:52:03;;;;;;;23.03;13.63;;;;;;;;;;5069988;27;89894;-57
2023/10/07 07:54:31;;;;;;;17.80;11.60;;;;;;;;;;5077066;27;87772;-57
2023/10/07 07:57:04;;;;;;;24.97;12.47;;;;;;;;;;5083829;27;88232;-55
2023/10/07 07:59:33;;;;;;;19.23;11.40;;;;;;;;;;5083906;27;88096;-55
2023/10/07 08:02:12;;;;;;;13.97;8.27;;;;;;;;;;5077713;27;88989;-57
2023/10/07 08:04:46;;;;;;;17.17;7.97;;;;;;;;;;5076300;27;87510;-57
2023/10/07 08:07:24;;;;;;;15.67;8.50;;;;;;;;;;5074190;27;93634;-56
2023/10/07 08:09:53;;;;;;;15.07;7.87;;;;;;;;;;5078528;27;88145;-57
2023/10/07 08:12:28;;;;;;;17.33;8.13;;;;;;;;;;5084470;27;87421;-57
2023/10/07 08:14:58;;;;;;;12.20;7.20;;;;;;;;;;5084787;27;88507;-57
2023/10/07 08:17:27;;;;;;;13.30;6.60;;;;;;;;;;5084435;27;88346;-57
2023/10/07 08:19:57;;;;;;;14.27;6.97;;;;;;;;;;5083627;27;89006;-57
2023/10/07 08:22:28;;;;;;;14.00;6.03;;;;;;;;;;5073886;27;87771;-57
2023/10/07 08:25:00;;;;;;;7.13;4.97;;;;;;;;;;5084432;27;88449;-57
2023/10/07 08:27:49;;;;;;;9.20;5.07;;;;;;;;;;5084526;27;88724;-57
2023/10/07 08:30:30;;;;;;;8.40;4.60;;;;;;;;;;5083870;27;87572;-57
2023/10/07 08:33:05;;;;;;;9.53;4.57;;;;;;;;;;5083059;27;87476;-57
2023/10/07 08:35:35;;;;;;;9.97;4.43;;;;;;;;;;5084953;27;87832;-56
2023/10/07 08:38:19;;;;;;;13.90;4.63;;;;;;;;;;5083920;27;88393;-56
2023/10/07 08:40:50;;;;;;;9.17;5.00;;;;;;;;;;5083329;27;89171;-57
2023/10/07 08:43:20;;;;;;;10.27;5.20;;;;;;;;;;5084135;27;90604;-59
2023/10/07 08:45:48;;;;;;;9.13;4.33;;;;;;;;;;5084032;27;87767;-56
2023/10/07 08:48:17;;;;;;;6.83;3.80;;;;;;;;;;5084109;27;89643;-56
2023/10/07 08:50:55;;;;;;;6.37;4.00;;;;;;;;;;5082313;27;88965;-56
2023/10/07 08:53:25;;;;;;;8.93;3.20;;;;;;;;;;5073672;27;87752;-56
2023/10/07 08:55:53;;;;;;;7.47;3.67;;;;;;;;;;5074264;27;88289;-57
2023/10/07 08:58:22;;;;;;;5.23;3.30;;;;;;;;;;5074549;27;88536;-57
2023/10/07 09:00:50;;;;;;;7.53;3.13;;;;;;;;;;5074801;27;88024;-56
2023/10/07 09:03:19;;;;;;;5.10;3.23;;;;;;;;;;5068114;27;89295;-57
2023/10/07 09:05:48;;;;;;;6.83;3.70;;;;;;;;;;5071759;27;88100;-57
2023/10/07 09:08:19;;;;;;;7.87;3.50;;;;;;;;;;5074471;27;88530;-56
2023/10/07 09:10:49;;;;;;;4.07;2.87;;;;;;;;;;5069665;27;89240;-56
2023/10/07 09:13:27;;;;;;;7.40;3.60;;;;;;;;;;5071507;27;87493;-56
2023/10/07 09:15:59;;;;;;;10.53;3.43;;;;;;;;;;5071472;27;87661;-56
2023/10/07 09:18:32;;;;;;;5.33;3.60;;;;;;;;;;5069679;27;88028;-56
2023/10/07 09:21:06;;;;;;;5.27;3.27;;;;;;;;;;5070546;27;88050;-56
2023/10/07 09:23:43;;;;;;;11.63;3.10;;;;;;;;;;5071064;27;87892;-56
2023/10/07 09:26:21;;;;;;;5.80;3.50;;;;;;;;;;5072531;27;87728;-57
2023/10/07 09:28:51;;;;;;;6.20;3.13;;;;;;;;;;5070218;27;88626;-57
2023/10/07 09:31:23;;;;;;;4.97;3.03;;;;;;;;;;5059017;27;90215;-57
2023/10/07 09:33:51;;;;;;;12.90;3.67;;;;;;;;;;5075311;27;88841;-57
2023/10/07 09:36:33;;;;;;;7.10;2.70;;;;;;;;;;5072314;27;87695;-57
2023/10/07 09:39:31;;;;;;;7.80;3.03;;;;;;;;;;5073233;27;89658;-59
2023/10/07 09:42:03;;;;;;;9.60;3.10;;;;;;;;;;5080136;27;89013;-58
2023/10/07 09:44:37;;;;;;;5.50;3.77;;;;;;;;;;5079820;27;88527;-57
2023/10/07 09:47:13;;;;;;;7.53;3.77;;;;;;;;;;5079456;27;88198;-55
2023/10/07 09:49:44;;;;;;;7.87;4.03;;;;;;;;;;5077244;27;89001;-57
2023/10/07 09:52:18;;;;;;;7.73;3.20;;;;;;;;;;5077535;27;88041;-57
2023/10/07 09:54:55;;;;;;;5.50;2.63;;;;;;;;;;5078997;27;88767;-57
2023/10/07 09:57:29;;;;;;;7.57;3.30;;;;;;;;;;5078403;27;88064;-57
2023/10/07 10:00:26;;;;;;;6.90;3.10;;;;;;;;;;5079622;27;88572;-57
2023/10/07 10:02:51;;;;;;;9.17;3.77;;;;;;;;;;5079035;27;88017;-57
2023/10/07 10:05:26;;;;;;;5.83;3.00;;;;;;;;;;5059298;27;87898;-57
2023/10/07 10:08:08;;;;;;;6.70;4.13;;;;;;;;;;5079022;27;87688;-57
2023/10/07 10:10:44;;;;;;;5.67;3.60;;;;;;;;;;5078975;27;89208;-57
2023/10/07 10:13:28;;;;;;;5.73;2.63;;;;;;;;;;5078463;27;89327;-59
2023/10/07 10:16:00;;;;;;;6.47;2.93;;;;;;;;;;5078655;27;89065;-57
2023/10/07 10:18:40;;;;;;;14.30;4.13;;;;;;;;;;5076539;27;87559;-57
2023/10/07 10:21:09;;;;;;;6.03;3.60;;;;;;;;;;5058586;27;88458;-58
2023/10/07 10:23:39;;;;;;;7.50;3.53;;;;;;;;;;5062411;27;88293;-59
2023/10/07 10:26:20;;;;;;;4.53;2.60;;;;;;;;;;5079375;27;90156;-59
2023/10/07 10:28:59;;;;;;;8.47;2.90;;;;;;;;;;5079567;27;87409;-57
2023/10/07 10:31:32;;;;;;;4.13;2.63;;;;;;;;;;5077740;27;89455;-57
2023/10/07 10:34:04;;;;;;;4.47;2.07;;;;;;;;;;5068054;27;88344;-57
2023/10/07 10:36:35;;;;;;;4.07;2.50;;;;;;;;;;5078820;27;87956;-57
2023/10/07 10:39:06;;;;;;;4.17;2.57;;;;;;;;;;5061083;27;87555;-57
2023/10/07 10:41:35;;;;;;;5.33;2.37;;;;;;;;;;5079237;27;88552;-57
2023/10/07 10:44:10;;;;;;;5.77;2.33;;;;;;;;;;5078278;27;89174;-56
2023/10/07 10:46:46;;;;;;;5.03;2.50;;;;;;;;;;5067362;27;88143;-54
2023/10/07 10:49:16;;;;;;;3.50;2.17;;;;;;;;;;5077803;27;88008;-54
2023/10/07 10:51:46;;;;;;;4.37;2.20;;;;;;;;;;5078469;27;88250;-54
2023/10/07 10:54:15;;;;;;;6.17;2.20;;;;;;;;;;5073474;27;88038;-53
2023/10/07 10:56:48;;;;;;;3.67;2.50;;;;;;;;;;5077089;27;89018;-54
2023/10/07 10:59:18;;;;;;;6.00;2.20;;;;;;;;;;5079016;27;89055;-54
2023/10/07 11:01:49;;;;;;;4.87;2.20;;;;;;;;;;5079225;27;89741;-54
2023/10/07 11:04:22;;;;;;;6.27;2.47;;;;;;;;;;5078916;27;89245;-54
2023/10/07 11:06:51;;;;;;;7.20;3.03;;;;;;;;;;5078030;27;88819;-54
2023/10/07 11:09:25;;;;;;;2.97;1.80;;;;;;;;;;5078881;27;87543;-54
2023/10/07 11:11:55;;;;;;;4.93;2.40;;;;;;;;;;5073618;27;89614;-53
2023/10/07 11:14:26;;;;;;;6.50;3.00;;;;;;;;;;5077670;27;90039;-53
2023/10/07 11:17:00;;;;;;;8.03;2.60;;;;;;;;;;5071803;27;88784;-54
2023/10/07 11:19:30;;;;;;;3.77;2.47;;;;;;;;;;5077529;27;87605;-53
2023/10/07 11:21:58;;;;;;;5.10;2.87;;;;;;;;;;5076225;27;90322;-54
2023/10/07 11:24:27;;;;;;;4.70;2.93;;;;;;;;;;5076088;27;89057;-52
2023/10/07 11:26:56;;;;;;;5.30;2.80;;;;;;;;;;5076331;27;91676;-57
2023/10/07 11:29:30;;;;;;;4.67;3.30;;;;;;;;;;5078143;27;89302;-59
2023/10/07 11:31:59;;;;;;;5.03;2.63;;;;;;;;;;5071970;27;88332;-54
2023/10/07 11:34:32;;;;;;;7.03;3.20;;;;;;;;;;5072037;27;89105;-53
2023/10/07 11:37:09;;;;;;;11.17;2.90;;;;;;;;;;5077191;27;87744;-53
2023/10/07 11:39:43;;;;;;;8.67;3.57;;;;;;;;;;5057771;27;88086;-53
2023/10/07 11:42:14;;;;;;;3.47;2.73;;;;;;;;;;5060469;27;88577;-52
2023/10/07 11:44:46;;;;;;;7.27;3.23;;;;;;;;;;5061687;27;89139;-53
2023/10/07 11:47:16;;;;;;;6.23;2.47;;;;;;;;;;5078315;27;89434;-52
2023/10/07 11:49:47;;;;;;;5.37;3.47;;;;;;;;;;5077542;27;87585;-53
2023/10/07 11:52:19;;;;;;;6.20;3.13;;;;;;;;;;5077960;27;88472;-53
2023/10/07 11:54:47;;;;;;;5.43;3.33;;;;;;;;;;5077653;27;88266;-52
2023/10/07 11:57:18;;;;;;;5.97;3.70;;;;;;;;;;5077709;27;87671;-52
2023/10/07 11:59:48;;;;;;;6.97;3.20;;;;;;;;;;5077851;27;87617;-53
2023/10/07 12:02:16;;;;;;;8.03;3.50;;;;;;;;;;5077940;27;87482;-53
2023/10/07 12:04:46;;;;;;;5.17;2.87;;;;;;;;;;5076999;27;90180;-52
2023/10/07 12:07:16;;;;;;;4.63;2.67;;;;;;;;;;5076282;27;89347;-52
2023/10/07 12:09:46;;;;;;;4.23;3.10;;;;;;;;;;5073333;27;87488;-53
2023/10/07 12:12:17;;;;;;;5.90;2.20;;;;;;;;;;5077120;27;89965;-53
2023/10/07 12:14:47;;;;;;;6.70;3.53;;;;;;;;;;5075545;27;88146;-53
2023/10/07 12:17:16;;;;;;;9.63;4.13;;;;;;;;;;5074385;27;87781;-53
2023/10/07 12:19:45;;;;;;;3.27;2.13;;;;;;;;;;5075294;27;87718;-53
2023/10/07 12:22:15;;;;;;;6.53;2.90;;;;;;;;;;5077584;27;87890;-53
2023/10/07 12:24:46;;;;;;;5.30;2.90;;;;;;;;;;5076286;27;88146;-53
2023/10/07 12:27:14;;;;;;;3.13;1.97;;;;;;;;;;5057372;27;88802;-53
2023/10/07 12:29:44;;;;;;;3.50;2.30;;;;;;;;;;5058818;27;87988;-53
2023/10/07 12:32:13;;;;;;;5.43;2.53;;;;;;;;;;5076256;27;89601;-53
2023/10/07 12:34:47;;;;;;;4.83;2.67;;;;;;;;;;5075632;27;89247;-53
2023/10/07 12:37:16;;;;;;;6.33;2.87;;;;;;;;;;5076386;27;88888;-53
2023/10/07 12:39:49;;;;;;;6.83;2.50;;;;;;;;;;5081345;27;87672;-53
2023/10/07 12:42:18;;;;;;;3.47;2.17;;;;;;;;;;5078004;27;90046;-53
2023/10/07 12:44:46;;;;;;;4.73;2.83;;;;;;;;;;5072521;27;87623;-54
2023/10/07 12:47:17;;;;;;;3.13;2.17;;;;;;;;;;5079914;27;88801;-52
2023/10/07 12:49:45;;;;;;;3.97;3.00;;;;;;;;;;5071449;27;87680;-54
2023/10/07 12:52:16;;;;;;;6.10;2.60;;;;;;;;;;5074584;27;88338;-53
2023/10/07 12:54:44;;;;;;;4.60;3.10;;;;;;;;;;5073443;27;90201;-53
2023/10/07 12:57:15;;;;;;;9.63;3.33;;;;;;;;;;5079272;27;88853;-53
2023/10/07 12:59:47;;;;;;;6.23;3.10;;;;;;;;;;5079694;27;87577;-52
2023/10/07 13:02:18;;;;;;;7.50;3.17;;;;;;;;;;5074135;27;89923;-53
2023/10/07 13:04:47;;;;;;;5.03;2.93;;;;;;;;;;5080631;27;88174;-53
2023/10/07 13:07:17;;;;;;;10.80;3.77;;;;;;;;;;5079600;27;88059;-53
2023/10/07 13:09:46;;;;;;;6.77;3.27;;;;;;;;;;5076240;27;87553;-53
2023/10/07 13:12:17;;;;;;;6.00;3.07;;;;;;;;;;5071851;27;89938;-53
2023/10/07 13:14:46;;;;;;;6.73;2.30;;;;;;;;;;5080345;27;89124;-53
2023/10/07 13:17:16;;;;;;;7.30;3.37;;;;;;;;;;5079140;27;88275;-53
2023/10/07 13:19:50;;;;;;;5.40;3.07;;;;;;;;;;5079621;27;88028;-53
2023/10/07 13:22:19;;;;;;;6.00;2.83;;;;;;;;;;5078619;27;89791;-53
2023/10/07 13:24:47;;;;;;;5.07;3.10;;;;;;;;;;5079962;27;88918;-52
2023/10/07 13:27:16;;;;;;;6.00;2.67;;;;;;;;;;5080070;27;87749;-53
2023/10/07 13:29:47;;;;;;;12.13;3.40;;;;;;;;;;5080348;27;87838;-53
2023/10/07 13:32:17;;;;;;;6.07;3.17;;;;;;;;;;5070161;27;88304;-52
2023/10/07 13:34:46;;;;;;;7.30;3.70;;;;;;;;;;5065161;27;88210;-53
2023/10/07 13:37:15;;;;;;;5.73;2.97;;;;;;;;;;5080604;27;87548;-53
2023/10/07 13:39:43;;;;;;;6.13;2.60;;;;;;;;;;5080162;27;87497;-52
2023/10/07 13:42:11;;;;;;;3.47;2.63;;;;;;;;;;5074605;27;89873;-53
2023/10/07 13:44:41;;;;;;;7.00;2.33;;;;;;;;;;5077516;27;88048;-52
2023/10/07 13:47:09;;;;;;;7.23;2.63;;;;;;;;;;5078753;27;88683;-52
2023/10/07 13:49:41;;;;;;;5.90;2.53;;;;;;;;;;5075494;27;87659;-53
2023/10/07 13:52:10;;;;;;;7.10;2.93;;;;;;;;;;5078917;27;88780;-53
2023/10/07 13:54:47;;;;;;;5.40;2.70;;;;;;;;;;5078837;27;89107;-53
2023/10/07 13:57:22;;;;;;;4.00;2.70;;;;;;;;;;5076723;27;87594;-53
2023/10/07 13:59:51;;;;;;;5.63;2.70;;;;;;;;;;5073167;27;87630;-54
2023/10/07 14:02:21;;;;;;;10.07;3.33;;;;;;;;;;5079333;27;89672;-53
2023/10/07 14:04:57;;;;;;;2.87;2.10;;;;;;;;;;5078372;27;87977;-54
2023/10/07 14:07:27;;;;;;;7.30;1.83;;;;;;;;;;5066719;27;87730;-53
2023/10/07 14:09:55;;;;;;;4.43;2.07;;;;;;;;;;5068003;27;88398;-53
2023/10/07 14:12:23;;;;;;;4.83;1.90;;;;;;;;;;5073504;27;89652;-53
2023/10/07 14:14:55;;;;;;;3.00;2.00;;;;;;;;;;5077250;27;89761;-53
2023/10/07 14:17:23;;;;;;;5.53;2.00;;;;;;;;;;5077561;27;88962;-54
2023/10/07 14:19:57;;;;;;;3.20;2.00;;;;;;;;;;5076067;27;87605;-54
2023/10/07 14:22:28;;;;;;;8.20;2.63;;;;;;;;;;5074763;27;88750;-53
2023/10/07 14:24:57;;;;;;;8.87;2.20;;;;;;;;;;5073384;27;89039;-53
2023/10/07 14:27:28;;;;;;;8.23;2.77;;;;;;;;;;5070728;27;88780;-53
2023/10/07 14:29:56;;;;;;;4.43;2.27;;;;;;;;;;5077243;27;87514;-53
2023/10/07 14:32:25;;;;;;;6.40;2.10;;;;;;;;;;5071759;27;89878;-54
2023/10/07 14:34:56;;;;;;;7.53;2.27;;;;;;;;;;5076658;27;89076;-53
2023/10/07 14:37:24;;;;;;;8.03;2.23;;;;;;;;;;5076659;27;88977;-53
2023/10/07 14:39:52;;;;;;;8.50;2.57;;;;;;;;;;5076213;27;87633;-53
2023/10/07 14:42:26;;;;;;;5.93;2.67;;;;;;;;;;5074510;27;89125;-53
2023/10/07 14:44:55;;;;;;;6.60;2.13;;;;;;;;;;5078134;27;89013;-54
2023/10/07 14:47:24;;;;;;;3.70;2.17;;;;;;;;;;5076388;27;87692;-54
2023/10/07 14:49:54;;;;;;;4.47;3.00;;;;;;;;;;5070057;27;87687;-54
2023/10/07 14:52:24;;;;;;;13.23;3.47;;;;;;;;;;5076011;27;88502;-54
2023/10/07 14:54:54;;;;;;;8.23;3.10;;;;;;;;;;5078625;27;88893;-53
2023/10/07 14:57:22;;;;;;;4.67;2.77;;;;;;;;;;5077401;27;87883;-54
2023/10/07 14:59:51;;;;;;;6.73;3.00;;;;;;;;;;5077506;27;88071;-55
2023/10/07 15:02:19;;;;;;;8.00;3.23;;;;;;;;;;5077120;27;88420;-54
2023/10/07 15:04:51;;;;;;;6.23;3.83;;;;;;;;;;5066769;27;88008;-52
2023/10/07 15:07:20;;;;;;;5.90;3.67;;;;;;;;;;5077571;27;88466;-52
2023/10/07 15:09:50;;;;;;;12.23;4.07;;;;;;;;;;5078092;27;88517;-53
2023/10/07 15:12:19;;;;;;;5.87;3.57;;;;;;;;;;5078087;27;88557;-54